sensor_id;sensor_type;location;lat;lon;timestamp;temperature;humidity
39525;DHT22;25203;50.754;6.978;2023-01-31T00:01:23;5.20;99.90
39525;DHT22;25203;50.754;6.978;2023-01-31T00:03:24;5.10;99.90
39525;DHT22;25203;50.754;6.978;2023-01-31T00:05:25;5.10;99.90
39525;DHT22;25203;50.754;6.978;2023-01-31T00:07:26;5.10;99.90
39525;DHT22;25203;50.754;6.978;2023-01-31T00:09:26;5.10;99.90
39525;DHT22;25203;50.754;6.978;2023-01-31T00:11:28;5.10;99.90
39525;DHT22;25203;50.754;6.978;2023-01-31T00:13:29;5.10;99.90
39525;DHT22;25203;50.754;6.978;2023-01-31T00:15:30;5.10;99.90
39525;DHT22;25203;50.754;6.978;2023-01-31T00:17:30;5.10;99.90
39525;DHT22;25203;50.754;6.978;2023-01-31T00:19:31;5.00;99.90
39525;DHT22;25203;50.754;6.978;2023-01-31T00:21:32;5.00;99.90
39525;DHT22;25203;50.754;6.978;2023-01-31T00:23:32;4.90;99.90
39525;DHT22;25203;50.754;6.978;2023-01-31T00:25:33;4.90;99.90
39525;DHT22;25203;50.754;6.978;2023-01-31T00:27:33;4.90;99.90
39525;DHT22;25203;50.754;6.978;2023-01-31T00:29:34;4.90;99.90
39525;DHT22;25203;50.754;6.978;2023-01-31T00:31:35;4.90;99.90
39525;DHT22;25203;50.754;6.978;2023-01-31T00:33:37;4.90;99.90
39525;DHT22;25203;50.754;6.978;2023-01-31T00:35:38;4.90;99.90
39525;DHT22;25203;50.754;6.978;2023-01-31T00:37:40;4.80;99.90
39525;DHT22;25203;50.754;6.978;2023-01-31T00:39:40;4.80;99.90
39525;DHT22;25203;50.754;6.978;2023-01-31T00:41:41;4.90;99.90
39525;DHT22;25203;50.754;6.978;2023-01-31T00:43:41;4.90;99.90
39525;DHT22;25203;50.754;6.978;2023-01-31T00:45:42;4.90;99.90
39525;DHT22;25203;50.754;6.978;2023-01-31T00:47:42;4.90;99.90
39525;DHT22;25203;50.754;6.978;2023-01-31T00:49:43;4.90;99.90
39525;DHT22;25203;50.754;6.978;2023-01-31T00:51:44;4.90;99.90
39525;DHT22;25203;50.754;6.978;2023-01-31T00:53:45;4.90;99.90
39525;DHT22;25203;50.754;6.978;2023-01-31T00:55:45;4.90;99.90
39525;DHT22;25203;50.754;6.978;2023-01-31T00:57:46;4.90;99.90
39525;DHT22;25203;50.754;6.978;2023-01-31T00:59:46;4.90;99.90
39525;DHT22;25203;50.754;6.978;2023-01-31T01:01:47;4.90;99.90
39525;DHT22;25203;50.754;6.978;2023-01-31T01:03:48;4.90;99.90
39525;DHT22;25203;50.754;6.978;2023-01-31T01:06:10;5.00;99.90
39525;DHT22;25203;50.754;6.978;2023-01-31T01:08:11;4.90;99.90
39525;DHT22;25203;50.754;6.978;2023-01-31T01:10:11;4.90;99.90
39525;DHT22;25203;50.754;6.978;2023-01-31T01:12:12;4.90;99.90
39525;DHT22;25203;50.754;6.978;2023-01-31T01:14:13;4.90;99.90
39525;DHT22;25203;50.754;6.978;2023-01-31T01:16:21;4.90;99.90
39525;DHT22;25203;50.754;6.978;2023-01-31T01:18:23;4.90;99.90
39525;DHT22;25203;50.754;6.978;2023-01-31T01:20:23;4.90;99.90
39525;DHT22;25203;50.754;6.978;2023-01-31T01:22:24;4.90;99.90
39525;DHT22;25203;50.754;6.978;2023-01-31T01:24:24;4.80;99.90
39525;DHT22;25203;50.754;6.978;2023-01-31T01:26:28;4.80;99.90
39525;DHT22;25203;50.754;6.978;2023-01-31T01:28:32;4.80;99.90
39525;DHT22;25203;50.754;6.978;2023-01-31T01:30:35;4.70;99.90
39525;DHT22;25203;50.754;6.978;2023-01-31T01:32:36;4.60;99.90
39525;DHT22;25203;50.754;6.978;2023-01-31T01:34:37;4.60;99.90
39525;DHT22;25203;50.754;6.978;2023-01-31T01:36:38;4.50;99.90
39525;DHT22;25203;50.754;6.978;2023-01-31T01:38:39;4.40;99.90
39525;DHT22;25203;50.754;6.978;2023-01-31T01:40:40;4.40;99.90
39525;DHT22;25203;50.754;6.978;2023-01-31T01:42:41;4.30;99.90
39525;DHT22;25203;50.754;6.978;2023-01-31T01:44:57;4.20;99.90
39525;DHT22;25203;50.754;6.978;2023-01-31T01:46:58;4.20;99.90
39525;DHT22;25203;50.754;6.978;2023-01-31T01:49:30;4.00;99.90
39525;DHT22;25203;50.754;6.978;2023-01-31T01:51:33;4.00;99.90
39525;DHT22;25203;50.754;6.978;2023-01-31T01:53:35;3.90;99.90
39525;DHT22;25203;50.754;6.978;2023-01-31T01:57:44;3.90;99.90
39525;DHT22;25203;50.754;6.978;2023-01-31T01:59:57;4.00;99.90
39525;DHT22;25203;50.754;6.978;2023-01-31T02:02:00;4.00;99.90
39525;DHT22;25203;50.754;6.978;2023-01-31T02:04:04;4.00;99.90
39525;DHT22;25203;50.754;6.978;2023-01-31T02:06:06;4.00;99.90
39525;DHT22;25203;50.754;6.978;2023-01-31T02:08:07;4.00;99.90
39525;DHT22;25203;50.754;6.978;2023-01-31T02:10:19;4.00;99.90
39525;DHT22;25203;50.754;6.978;2023-01-31T02:12:23;4.00;99.90
39525;DHT22;25203;50.754;6.978;2023-01-31T02:14:24;3.90;99.90
39525;DHT22;25203;50.754;6.978;2023-01-31T02:16:26;3.90;99.90
39525;DHT22;25203;50.754;6.978;2023-01-31T02:18:27;3.90;99.90
39525;DHT22;25203;50.754;6.978;2023-01-31T02:25:23;4.00;99.90
39525;DHT22;25203;50.754;6.978;2023-01-31T02:36:39;4.00;99.90
39525;DHT22;25203;50.754;6.978;2023-01-31T02:41:23;3.80;99.90
39525;DHT22;25203;50.754;6.978;2023-01-31T02:43:53;3.80;99.90
39525;DHT22;25203;50.754;6.978;2023-01-31T02:47:00;3.80;99.90
39525;DHT22;25203;50.754;6.978;2023-01-31T02:49:36;3.80;99.90
39525;DHT22;25203;50.754;6.978;2023-01-31T02:51:42;3.80;99.90
39525;DHT22;25203;50.754;6.978;2023-01-31T02:54:10;3.80;99.90
39525;DHT22;25203;50.754;6.978;2023-01-31T02:56:26;3.80;99.90
39525;DHT22;25203;50.754;6.978;2023-01-31T02:58:32;3.80;99.90
39525;DHT22;25203;50.754;6.978;2023-01-31T03:00:38;3.80;99.90
39525;DHT22;25203;50.754;6.978;2023-01-31T03:02:40;3.80;99.90
39525;DHT22;25203;50.754;6.978;2023-01-31T03:04:41;3.70;99.90
39525;DHT22;25203;50.754;6.978;2023-01-31T03:06:51;3.70;99.90
39525;DHT22;25203;50.754;6.978;2023-01-31T03:09:47;3.70;99.90
39525;DHT22;25203;50.754;6.978;2023-01-31T03:11:46;3.70;99.90
39525;DHT22;25203;50.754;6.978;2023-01-31T03:16:04;3.60;99.90
39525;DHT22;25203;50.754;6.978;2023-01-31T03:21:13;3.50;99.90
39525;DHT22;25203;50.754;6.978;2023-01-31T03:23:21;3.60;99.90
39525;DHT22;25203;50.754;6.978;2023-01-31T03:25:24;3.60;99.90
39525;DHT22;25203;50.754;6.978;2023-01-31T03:27:27;3.60;99.90
39525;DHT22;25203;50.754;6.978;2023-01-31T03:29:31;3.70;99.90
39525;DHT22;25203;50.754;6.978;2023-01-31T03:31:47;3.70;99.90
39525;DHT22;25203;50.754;6.978;2023-01-31T03:34:02;3.70;99.90
39525;DHT22;25203;50.754;6.978;2023-01-31T03:36:25;3.70;99.90
39525;DHT22;25203;50.754;6.978;2023-01-31T03:38:32;3.70;99.90
39525;DHT22;25203;50.754;6.978;2023-01-31T03:40:40;3.60;99.90
39525;DHT22;25203;50.754;6.978;2023-01-31T03:43:01;3.70;99.90
39525;DHT22;25203;50.754;6.978;2023-01-31T03:47:26;3.70;99.90
39525;DHT22;25203;50.754;6.978;2023-01-31T03:49:30;3.70;99.90
39525;DHT22;25203;50.754;6.978;2023-01-31T03:51:32;3.70;99.90
39525;DHT22;25203;50.754;6.978;2023-01-31T03:53:42;3.60;99.90
39525;DHT22;25203;50.754;6.978;2023-01-31T03:55:54;3.50;99.90
39525;DHT22;25203;50.754;6.978;2023-01-31T03:57:57;3.50;99.90
39525;DHT22;25203;50.754;6.978;2023-01-31T04:00:00;3.50;99.90
39525;DHT22;25203;50.754;6.978;2023-01-31T04:02:05;3.40;99.90
39525;DHT22;25203;50.754;6.978;2023-01-31T04:04:09;3.50;99.90
39525;DHT22;25203;50.754;6.978;2023-01-31T04:06:12;3.50;99.90
39525;DHT22;25203;50.754;6.978;2023-01-31T04:08:13;3.40;99.90
39525;DHT22;25203;50.754;6.978;2023-01-31T04:10:16;3.40;99.90
39525;DHT22;25203;50.754;6.978;2023-01-31T04:12:17;3.50;99.90
39525;DHT22;25203;50.754;6.978;2023-01-31T04:14:18;3.50;99.90
39525;DHT22;25203;50.754;6.978;2023-01-31T04:16:19;3.40;99.90
39525;DHT22;25203;50.754;6.978;2023-01-31T04:18:20;3.40;99.90
39525;DHT22;25203;50.754;6.978;2023-01-31T04:20:20;3.30;99.90
39525;DHT22;25203;50.754;6.978;2023-01-31T04:22:21;3.30;99.90
39525;DHT22;25203;50.754;6.978;2023-01-31T04:24:23;3.30;99.90
39525;DHT22;25203;50.754;6.978;2023-01-31T04:26:23;3.40;99.90
39525;DHT22;25203;50.754;6.978;2023-01-31T04:28:24;3.40;99.90
39525;DHT22;25203;50.754;6.978;2023-01-31T04:30:25;3.30;99.90
39525;DHT22;25203;50.754;6.978;2023-01-31T04:32:26;3.30;99.90
39525;DHT22;25203;50.754;6.978;2023-01-31T04:34:27;3.30;99.90
39525;DHT22;25203;50.754;6.978;2023-01-31T04:36:28;3.20;99.90
39525;DHT22;25203;50.754;6.978;2023-01-31T04:38:28;3.20;99.90
39525;DHT22;25203;50.754;6.978;2023-01-31T04:40:29;3.10;99.90
39525;DHT22;25203;50.754;6.978;2023-01-31T04:42:29;3.10;99.90
39525;DHT22;25203;50.754;6.978;2023-01-31T04:44:30;3.00;99.90
39525;DHT22;25203;50.754;6.978;2023-01-31T04:46:30;3.00;99.90
39525;DHT22;25203;50.754;6.978;2023-01-31T04:48:31;3.00;99.90
39525;DHT22;25203;50.754;6.978;2023-01-31T04:50:32;3.00;99.90
39525;DHT22;25203;50.754;6.978;2023-01-31T04:52:32;3.00;99.90
39525;DHT22;25203;50.754;6.978;2023-01-31T04:54:33;3.10;99.90
39525;DHT22;25203;50.754;6.978;2023-01-31T04:56:34;3.00;99.90
39525;DHT22;25203;50.754;6.978;2023-01-31T04:58:34;2.90;99.90
39525;DHT22;25203;50.754;6.978;2023-01-31T05:00:35;2.90;99.90
39525;DHT22;25203;50.754;6.978;2023-01-31T05:02:36;2.90;99.90
39525;DHT22;25203;50.754;6.978;2023-01-31T05:04:36;2.90;99.90
39525;DHT22;25203;50.754;6.978;2023-01-31T05:06:37;2.80;99.90
39525;DHT22;25203;50.754;6.978;2023-01-31T05:08:38;2.90;99.90
39525;DHT22;25203;50.754;6.978;2023-01-31T05:10:38;2.90;99.90
39525;DHT22;25203;50.754;6.978;2023-01-31T05:12:40;2.90;99.90
39525;DHT22;25203;50.754;6.978;2023-01-31T05:14:40;2.90;99.90
39525;DHT22;25203;50.754;6.978;2023-01-31T05:16:41;2.80;99.90
39525;DHT22;25203;50.754;6.978;2023-01-31T05:18:46;2.90;99.90
39525;DHT22;25203;50.754;6.978;2023-01-31T05:20:47;2.80;99.90
39525;DHT22;25203;50.754;6.978;2023-01-31T05:22:49;2.80;99.90
39525;DHT22;25203;50.754;6.978;2023-01-31T05:24:50;2.80;99.90
39525;DHT22;25203;50.754;6.978;2023-01-31T05:26:51;2.90;99.90
39525;DHT22;25203;50.754;6.978;2023-01-31T05:28:55;2.90;99.90
39525;DHT22;25203;50.754;6.978;2023-01-31T05:31:05;3.00;99.90
39525;DHT22;25203;50.754;6.978;2023-01-31T05:33:06;3.00;99.90
39525;DHT22;25203;50.754;6.978;2023-01-31T05:35:07;3.00;99.90
39525;DHT22;25203;50.754;6.978;2023-01-31T05:37:07;3.10;99.90
39525;DHT22;25203;50.754;6.978;2023-01-31T05:39:08;3.10;99.90
39525;DHT22;25203;50.754;6.978;2023-01-31T05:41:08;3.10;99.90
39525;DHT22;25203;50.754;6.978;2023-01-31T05:43:09;3.10;99.90
39525;DHT22;25203;50.754;6.978;2023-01-31T05:45:10;3.20;99.90
39525;DHT22;25203;50.754;6.978;2023-01-31T05:47:11;3.20;99.90
39525;DHT22;25203;50.754;6.978;2023-01-31T05:49:12;3.30;99.90
39525;DHT22;25203;50.754;6.978;2023-01-31T05:51:13;3.40;99.90
39525;DHT22;25203;50.754;6.978;2023-01-31T05:53:14;3.40;99.90
39525;DHT22;25203;50.754;6.978;2023-01-31T05:55:14;3.50;99.90
39525;DHT22;25203;50.754;6.978;2023-01-31T05:57:15;3.50;99.90
39525;DHT22;25203;50.754;6.978;2023-01-31T05:59:16;3.60;99.90
39525;DHT22;25203;50.754;6.978;2023-01-31T06:01:17;3.60;99.90
39525;DHT22;25203;50.754;6.978;2023-01-31T06:03:18;3.60;99.90
39525;DHT22;25203;50.754;6.978;2023-01-31T06:05:19;3.70;99.90
39525;DHT22;25203;50.754;6.978;2023-01-31T06:07:19;3.70;99.90
39525;DHT22;25203;50.754;6.978;2023-01-31T06:09:20;3.70;99.90
39525;DHT22;25203;50.754;6.978;2023-01-31T06:11:21;3.80;99.90
39525;DHT22;25203;50.754;6.978;2023-01-31T06:13:22;3.80;99.90
39525;DHT22;25203;50.754;6.978;2023-01-31T06:15:22;3.80;99.90
39525;DHT22;25203;50.754;6.978;2023-01-31T06:17:23;3.90;99.90
39525;DHT22;25203;50.754;6.978;2023-01-31T06:19:24;3.80;99.90
39525;DHT22;25203;50.754;6.978;2023-01-31T06:21:24;3.80;99.90
39525;DHT22;25203;50.754;6.978;2023-01-31T06:23:25;3.80;99.90
39525;DHT22;25203;50.754;6.978;2023-01-31T06:25:26;3.70;99.90
39525;DHT22;25203;50.754;6.978;2023-01-31T06:27:26;3.70;99.90
39525;DHT22;25203;50.754;6.978;2023-01-31T06:29:27;3.70;99.90
39525;DHT22;25203;50.754;6.978;2023-01-31T06:31:28;3.70;99.90
39525;DHT22;25203;50.754;6.978;2023-01-31T06:33:28;3.70;99.90
39525;DHT22;25203;50.754;6.978;2023-01-31T06:35:29;3.70;99.90
39525;DHT22;25203;50.754;6.978;2023-01-31T06:37:30;3.70;99.90
39525;DHT22;25203;50.754;6.978;2023-01-31T06:39:30;3.80;99.90
39525;DHT22;25203;50.754;6.978;2023-01-31T06:41:31;3.80;99.90
39525;DHT22;25203;50.754;6.978;2023-01-31T06:43:32;3.80;99.90
39525;DHT22;25203;50.754;6.978;2023-01-31T06:45:33;3.80;99.90
39525;DHT22;25203;50.754;6.978;2023-01-31T06:47:33;3.90;99.90
39525;DHT22;25203;50.754;6.978;2023-01-31T06:49:34;4.00;99.90
39525;DHT22;25203;50.754;6.978;2023-01-31T06:51:35;4.00;99.90
39525;DHT22;25203;50.754;6.978;2023-01-31T06:53:35;4.10;99.90
39525;DHT22;25203;50.754;6.978;2023-01-31T06:55:37;4.10;99.90
39525;DHT22;25203;50.754;6.978;2023-01-31T06:57:47;4.10;99.90
39525;DHT22;25203;50.754;6.978;2023-01-31T06:59:48;4.10;99.90
39525;DHT22;25203;50.754;6.978;2023-01-31T07:01:49;4.10;99.90
39525;DHT22;25203;50.754;6.978;2023-01-31T07:03:49;4.10;99.90
39525;DHT22;25203;50.754;6.978;2023-01-31T07:05:50;4.10;99.90
39525;DHT22;25203;50.754;6.978;2023-01-31T07:07:50;4.20;99.90
39525;DHT22;25203;50.754;6.978;2023-01-31T07:09:51;4.20;99.90
39525;DHT22;25203;50.754;6.978;2023-01-31T07:11:53;4.10;99.90
39525;DHT22;25203;50.754;6.978;2023-01-31T07:13:53;4.10;99.90
39525;DHT22;25203;50.754;6.978;2023-01-31T07:15:55;4.10;99.90
39525;DHT22;25203;50.754;6.978;2023-01-31T07:17:59;4.10;99.90
39525;DHT22;25203;50.754;6.978;2023-01-31T07:19:59;4.20;99.90
39525;DHT22;25203;50.754;6.978;2023-01-31T07:22:00;4.20;99.90
39525;DHT22;25203;50.754;6.978;2023-01-31T07:24:00;4.20;99.90
39525;DHT22;25203;50.754;6.978;2023-01-31T07:26:05;4.20;99.90
39525;DHT22;25203;50.754;6.978;2023-01-31T07:28:05;4.30;99.90
39525;DHT22;25203;50.754;6.978;2023-01-31T07:30:06;4.30;99.90
39525;DHT22;25203;50.754;6.978;2023-01-31T07:32:07;4.30;99.90
39525;DHT22;25203;50.754;6.978;2023-01-31T07:34:07;4.30;99.90
39525;DHT22;25203;50.754;6.978;2023-01-31T07:36:12;4.40;99.90
39525;DHT22;25203;50.754;6.978;2023-01-31T07:38:13;4.50;99.90
39525;DHT22;25203;50.754;6.978;2023-01-31T07:40:14;4.50;99.90
39525;DHT22;25203;50.754;6.978;2023-01-31T07:42:15;4.50;99.90
39525;DHT22;25203;50.754;6.978;2023-01-31T07:44:15;4.60;99.90
39525;DHT22;25203;50.754;6.978;2023-01-31T07:46:17;4.60;99.90
39525;DHT22;25203;50.754;6.978;2023-01-31T07:48:18;4.60;99.90
39525;DHT22;25203;50.754;6.978;2023-01-31T07:50:22;4.60;99.90
39525;DHT22;25203;50.754;6.978;2023-01-31T07:52:23;4.60;99.90
39525;DHT22;25203;50.754;6.978;2023-01-31T07:54:24;4.60;99.90
39525;DHT22;25203;50.754;6.978;2023-01-31T07:56:24;4.60;99.90
39525;DHT22;25203;50.754;6.978;2023-01-31T07:58:25;4.50;99.90
39525;DHT22;25203;50.754;6.978;2023-01-31T08:00:25;4.50;99.90
39525;DHT22;25203;50.754;6.978;2023-01-31T08:02:44;4.50;99.90
39525;DHT22;25203;50.754;6.978;2023-01-31T08:05:04;4.50;99.90
39525;DHT22;25203;50.754;6.978;2023-01-31T08:07:05;4.50;99.90
39525;DHT22;25203;50.754;6.978;2023-01-31T08:09:06;4.50;99.90
39525;DHT22;25203;50.754;6.978;2023-01-31T08:11:07;4.60;99.90
39525;DHT22;25203;50.754;6.978;2023-01-31T08:13:08;4.60;99.90
39525;DHT22;25203;50.754;6.978;2023-01-31T08:15:11;4.60;99.90
39525;DHT22;25203;50.754;6.978;2023-01-31T08:17:11;4.70;99.90
39525;DHT22;25203;50.754;6.978;2023-01-31T08:19:12;4.70;99.90
39525;DHT22;25203;50.754;6.978;2023-01-31T08:21:14;4.80;99.90
39525;DHT22;25203;50.754;6.978;2023-01-31T08:23:15;4.90;99.90
39525;DHT22;25203;50.754;6.978;2023-01-31T08:25:15;4.90;99.90
39525;DHT22;25203;50.754;6.978;2023-01-31T08:27:16;5.00;99.90
39525;DHT22;25203;50.754;6.978;2023-01-31T08:29:17;5.10;99.90
39525;DHT22;25203;50.754;6.978;2023-01-31T08:31:24;5.10;99.90
39525;DHT22;25203;50.754;6.978;2023-01-31T08:33:25;5.10;99.90
39525;DHT22;25203;50.754;6.978;2023-01-31T08:35:26;5.10;99.90
39525;DHT22;25203;50.754;6.978;2023-01-31T08:37:27;5.20;99.90
39525;DHT22;25203;50.754;6.978;2023-01-31T08:39:28;5.20;99.90
39525;DHT22;25203;50.754;6.978;2023-01-31T08:41:29;5.20;99.90
39525;DHT22;25203;50.754;6.978;2023-01-31T08:43:31;5.30;99.90
39525;DHT22;25203;50.754;6.978;2023-01-31T08:45:32;5.30;99.90
39525;DHT22;25203;50.754;6.978;2023-01-31T08:47:33;5.30;99.90
39525;DHT22;25203;50.754;6.978;2023-01-31T08:49:33;5.40;99.90
39525;DHT22;25203;50.754;6.978;2023-01-31T08:51:36;5.40;99.90
39525;DHT22;25203;50.754;6.978;2023-01-31T08:53:40;5.40;99.90
39525;DHT22;25203;50.754;6.978;2023-01-31T08:55:43;5.40;99.90
39525;DHT22;25203;50.754;6.978;2023-01-31T08:57:43;5.40;99.90
39525;DHT22;25203;50.754;6.978;2023-01-31T08:59:45;5.50;99.90
39525;DHT22;25203;50.754;6.978;2023-01-31T09:01:46;5.50;99.90
39525;DHT22;25203;50.754;6.978;2023-01-31T09:03:47;5.60;99.90
39525;DHT22;25203;50.754;6.978;2023-01-31T09:05:49;5.60;99.90
39525;DHT22;25203;50.754;6.978;2023-01-31T09:07:50;5.70;99.90
39525;DHT22;25203;50.754;6.978;2023-01-31T09:09:51;5.70;99.90
39525;DHT22;25203;50.754;6.978;2023-01-31T09:11:51;5.80;99.90
39525;DHT22;25203;50.754;6.978;2023-01-31T09:13:52;5.90;99.90
39525;DHT22;25203;50.754;6.978;2023-01-31T09:16:03;5.90;99.90
39525;DHT22;25203;50.754;6.978;2023-01-31T09:18:04;5.90;99.90
39525;DHT22;25203;50.754;6.978;2023-01-31T09:20:06;5.90;99.90
39525;DHT22;25203;50.754;6.978;2023-01-31T09:22:08;5.90;99.90
39525;DHT22;25203;50.754;6.978;2023-01-31T09:24:09;6.00;99.90
39525;DHT22;25203;50.754;6.978;2023-01-31T09:26:12;6.10;99.90
39525;DHT22;25203;50.754;6.978;2023-01-31T09:28:13;6.20;99.90
39525;DHT22;25203;50.754;6.978;2023-01-31T09:30:14;6.10;99.90
39525;DHT22;25203;50.754;6.978;2023-01-31T09:32:16;6.20;99.90
39525;DHT22;25203;50.754;6.978;2023-01-31T09:34:16;6.10;99.90
39525;DHT22;25203;50.754;6.978;2023-01-31T09:36:19;6.10;99.90
39525;DHT22;25203;50.754;6.978;2023-01-31T09:38:20;6.10;99.90
39525;DHT22;25203;50.754;6.978;2023-01-31T09:40:21;6.10;99.90
39525;DHT22;25203;50.754;6.978;2023-01-31T09:42:32;6.10;99.90
39525;DHT22;25203;50.754;6.978;2023-01-31T09:44:40;6.20;99.90
39525;DHT22;25203;50.754;6.978;2023-01-31T09:46:46;6.20;99.90
39525;DHT22;25203;50.754;6.978;2023-01-31T09:48:50;6.20;99.90
39525;DHT22;25203;50.754;6.978;2023-01-31T09:50:53;6.30;99.90
39525;DHT22;25203;50.754;6.978;2023-01-31T09:52:56;6.30;99.90
39525;DHT22;25203;50.754;6.978;2023-01-31T09:54:57;6.30;99.90
39525;DHT22;25203;50.754;6.978;2023-01-31T09:57:03;6.30;99.90
39525;DHT22;25203;50.754;6.978;2023-01-31T09:59:20;6.30;99.90
39525;DHT22;25203;50.754;6.978;2023-01-31T10:05:44;6.50;99.90
39525;DHT22;25203;50.754;6.978;2023-01-31T10:10:40;6.50;99.90
39525;DHT22;25203;50.754;6.978;2023-01-31T10:12:46;6.60;99.90
39525;DHT22;25203;50.754;6.978;2023-01-31T10:15:22;6.60;99.90
39525;DHT22;25203;50.754;6.978;2023-01-31T10:19:50;6.70;99.90
39525;DHT22;25203;50.754;6.978;2023-01-31T10:21:56;6.70;99.90
39525;DHT22;25203;50.754;6.978;2023-01-31T10:24:12;6.70;99.90
39525;DHT22;25203;50.754;6.978;2023-01-31T10:26:22;6.70;99.90
39525;DHT22;25203;50.754;6.978;2023-01-31T10:31:00;6.70;99.90
39525;DHT22;25203;50.754;6.978;2023-01-31T10:33:25;6.80;99.90
39525;DHT22;25203;50.754;6.978;2023-01-31T10:35:38;6.80;99.90
39525;DHT22;25203;50.754;6.978;2023-01-31T10:37:45;6.90;99.90
39525;DHT22;25203;50.754;6.978;2023-01-31T10:39:53;6.90;99.90
39525;DHT22;25203;50.754;6.978;2023-01-31T10:44:06;6.90;99.90
39525;DHT22;25203;50.754;6.978;2023-01-31T10:46:13;7.00;99.90
39525;DHT22;25203;50.754;6.978;2023-01-31T10:48:22;7.00;99.90
39525;DHT22;25203;50.754;6.978;2023-01-31T10:50:57;7.00;99.90
39525;DHT22;25203;50.754;6.978;2023-01-31T10:57:21;7.00;99.90
39525;DHT22;25203;50.754;6.978;2023-01-31T10:59:28;6.90;99.90
39525;DHT22;25203;50.754;6.978;2023-01-31T11:01:30;6.90;99.90
39525;DHT22;25203;50.754;6.978;2023-01-31T11:03:30;6.80;99.90
39525;DHT22;25203;50.754;6.978;2023-01-31T11:05:31;6.80;99.90
39525;DHT22;25203;50.754;6.978;2023-01-31T11:07:34;6.80;99.90
39525;DHT22;25203;50.754;6.978;2023-01-31T11:09:39;6.70;99.90
39525;DHT22;25203;50.754;6.978;2023-01-31T11:11:58;6.60;99.90
39525;DHT22;25203;50.754;6.978;2023-01-31T11:14:04;6.50;99.90
39525;DHT22;25203;50.754;6.978;2023-01-31T11:16:11;6.50;99.90
39525;DHT22;25203;50.754;6.978;2023-01-31T11:18:31;6.50;99.90
39525;DHT22;25203;50.754;6.978;2023-01-31T11:20:44;6.50;99.90
39525;DHT22;25203;50.754;6.978;2023-01-31T11:22:45;6.60;99.90
39525;DHT22;25203;50.754;6.978;2023-01-31T11:24:46;6.60;99.90
39525;DHT22;25203;50.754;6.978;2023-01-31T11:27:10;6.70;99.90
39525;DHT22;25203;50.754;6.978;2023-01-31T11:29:23;6.80;99.90
39525;DHT22;25203;50.754;6.978;2023-01-31T11:31:32;6.80;99.90
39525;DHT22;25203;50.754;6.978;2023-01-31T11:33:57;6.90;99.90
39525;DHT22;25203;50.754;6.978;2023-01-31T11:35:58;6.90;99.90
39525;DHT22;25203;50.754;6.978;2023-01-31T11:38:01;7.00;99.90
39525;DHT22;25203;50.754;6.978;2023-01-31T11:40:19;7.00;99.90
39525;DHT22;25203;50.754;6.978;2023-01-31T11:42:21;7.00;99.90
39525;DHT22;25203;50.754;6.978;2023-01-31T11:44:22;7.00;99.90
39525;DHT22;25203;50.754;6.978;2023-01-31T11:46:23;7.00;99.90
39525;DHT22;25203;50.754;6.978;2023-01-31T11:48:30;7.10;99.90
39525;DHT22;25203;50.754;6.978;2023-01-31T11:50:38;7.20;99.90
39525;DHT22;25203;50.754;6.978;2023-01-31T11:52:39;7.30;99.90
39525;DHT22;25203;50.754;6.978;2023-01-31T11:54:53;7.30;99.90
39525;DHT22;25203;50.754;6.978;2023-01-31T11:56:54;7.30;99.90
39525;DHT22;25203;50.754;6.978;2023-01-31T11:58:57;7.30;99.90
39525;DHT22;25203;50.754;6.978;2023-01-31T12:01:16;7.30;99.90
39525;DHT22;25203;50.754;6.978;2023-01-31T12:03:17;7.30;99.90
39525;DHT22;25203;50.754;6.978;2023-01-31T12:05:18;7.40;99.90
39525;DHT22;25203;50.754;6.978;2023-01-31T12:07:25;7.40;99.90
39525;DHT22;25203;50.754;6.978;2023-01-31T12:09:29;7.40;99.90
39525;DHT22;25203;50.754;6.978;2023-01-31T12:11:34;7.50;99.90
39525;DHT22;25203;50.754;6.978;2023-01-31T12:13:46;7.50;99.90
39525;DHT22;25203;50.754;6.978;2023-01-31T12:16:01;7.50;99.90
39525;DHT22;25203;50.754;6.978;2023-01-31T12:18:02;7.60;99.90
39525;DHT22;25203;50.754;6.978;2023-01-31T12:22:38;7.60;99.90
39525;DHT22;25203;50.754;6.978;2023-01-31T12:24:52;7.60;99.90
39525;DHT22;25203;50.754;6.978;2023-01-31T12:26:58;7.60;99.90
39525;DHT22;25203;50.754;6.978;2023-01-31T12:31:24;7.40;99.90
39525;DHT22;25203;50.754;6.978;2023-01-31T12:40:51;7.50;99.90
39525;DHT22;25203;50.754;6.978;2023-01-31T12:43:01;7.60;99.90
39525;DHT22;25203;50.754;6.978;2023-01-31T12:45:47;7.60;99.90
39525;DHT22;25203;50.754;6.978;2023-01-31T12:50:31;7.40;99.90
39525;DHT22;25203;50.754;6.978;2023-01-31T12:52:50;7.30;99.90
39525;DHT22;25203;50.754;6.978;2023-01-31T13:06:52;7.30;99.90
39525;DHT22;25203;50.754;6.978;2023-01-31T13:09:00;7.30;99.90
39525;DHT22;25203;50.754;6.978;2023-01-31T13:11:10;7.30;99.90
39525;DHT22;25203;50.754;6.978;2023-01-31T13:13:32;7.30;99.90
39525;DHT22;25203;50.754;6.978;2023-01-31T13:15:51;7.30;99.90
39525;DHT22;25203;50.754;6.978;2023-01-31T13:18:02;7.30;99.90
39525;DHT22;25203;50.754;6.978;2023-01-31T13:22:20;7.40;99.90
39525;DHT22;25203;50.754;6.978;2023-01-31T13:24:26;7.40;99.90
39525;DHT22;25203;50.754;6.978;2023-01-31T13:26:31;7.40;99.90
39525;DHT22;25203;50.754;6.978;2023-01-31T13:30:58;7.50;99.90
39525;DHT22;25203;50.754;6.978;2023-01-31T13:33:07;7.50;99.90
39525;DHT22;25203;50.754;6.978;2023-01-31T13:35:20;7.50;99.90
39525;DHT22;25203;50.754;6.978;2023-01-31T13:37:23;7.50;99.90
39525;DHT22;25203;50.754;6.978;2023-01-31T13:39:42;7.60;99.90
39525;DHT22;25203;50.754;6.978;2023-01-31T13:41:51;7.60;99.90
39525;DHT22;25203;50.754;6.978;2023-01-31T13:43:51;7.60;99.90
39525;DHT22;25203;50.754;6.978;2023-01-31T13:45:56;7.70;99.90
39525;DHT22;25203;50.754;6.978;2023-01-31T13:48:03;7.70;99.90
39525;DHT22;25203;50.754;6.978;2023-01-31T13:52:47;7.70;99.90
39525;DHT22;25203;50.754;6.978;2023-01-31T13:54:52;7.80;99.90
39525;DHT22;25203;50.754;6.978;2023-01-31T13:56:56;7.80;99.90
39525;DHT22;25203;50.754;6.978;2023-01-31T13:58:59;7.80;99.90
39525;DHT22;25203;50.754;6.978;2023-01-31T14:01:07;7.80;99.90
39525;DHT22;25203;50.754;6.978;2023-01-31T14:03:14;7.80;99.90
39525;DHT22;25203;50.754;6.978;2023-01-31T14:07:40;7.90;99.90
39525;DHT22;25203;50.754;6.978;2023-01-31T14:09:45;7.90;99.90
39525;DHT22;25203;50.754;6.978;2023-01-31T14:15:06;7.90;99.90
39525;DHT22;25203;50.754;6.978;2023-01-31T14:16:43;7.90;99.90
39525;DHT22;25203;50.754;6.978;2023-01-31T14:18:45;7.90;99.90
39525;DHT22;25203;50.754;6.978;2023-01-31T14:20:46;7.80;99.90
39525;DHT22;25203;50.754;6.978;2023-01-31T14:25:41;7.80;99.90
39525;DHT22;25203;50.754;6.978;2023-01-31T14:32:15;7.60;99.90
39525;DHT22;25203;50.754;6.978;2023-01-31T14:34:23;7.50;99.90
39525;DHT22;25203;50.754;6.978;2023-01-31T14:36:32;7.50;99.90
39525;DHT22;25203;50.754;6.978;2023-01-31T14:43:48;7.50;99.90
39525;DHT22;25203;50.754;6.978;2023-01-31T14:48:54;7.50;99.90
39525;DHT22;25203;50.754;6.978;2023-01-31T14:51:08;7.50;99.90
39525;DHT22;25203;50.754;6.978;2023-01-31T14:57:55;7.50;99.90
39525;DHT22;25203;50.754;6.978;2023-01-31T15:00:00;7.50;99.90
39525;DHT22;25203;50.754;6.978;2023-01-31T15:04:30;7.50;99.90
39525;DHT22;25203;50.754;6.978;2023-01-31T15:06:34;7.50;99.90